Nogales Intl Information

FAA: OLS - ICAO: KOLS

Nogales Intl (Airport) Location

State Arizona
County Santa Cruz
City Nogales
Nogales Intl (Airport) is 7 miles northeast of Nogales, AZ.
Latitude 31-25-03.8000N
Longitude 110-50-52.4000W
Elevation 3,955ft

Nogales Intl METARs

METAR KOLS 262354Z AUTO 29006KT 10SM CLR 17/M17 A3005 RMK AO2 SLP153 T01671167 10183 20128 55004
Altimeter 30.05"
Temperature 16.7°C (62.1°F)
Wind 290° at 6KT
Clouds Skies are clear.
Visibility 10.0mi
Time observed: 2022-01-26T23:54:00Z

Nogales Intl (Airport) Details

Status Operational
Activation April 1940
Ownership Public
Usage Public
Chart PHOENIX
ATC on-site No
Beacon schedule sunset-sunrise
Beacon color clear green

Nogales Intl (Airport) Contacts

Owner SANTA CRUZ COUNTY
Owner address COUNTY COURTHOUSE, NOGALES, AZ 85621
Owner phone 520-375-7930
Manager JOHN ANDERSON
Manager address P.O. BOX 492, 37526 N. 237TH AVE., MORRISTOWN, AZ 85342
Manager phone (602) 980-8174

Nogales Intl Radio Frequencies

Nogales Intl (Airport) Radio Frequencies

UNICOM 122.8
Common traffic advisory frequency (CTAF) 122.8